KTVC/TVC METAR and TAF weather

Enter ICAO airport designator
Station Type Date Time Source
KTVC METAR 2019/06/17 06:53 UTC NOAA

KTVC 170653Z AUTO 18003KT 10SM CLR 09/08 A2999 RMK AO2 SLP156 T00940078


Station Type Date Time Source
KTVC Decoded METAR 2019/06/17 06:53 UTC NOAA

CHERRY CAPITAL AIRPORT, MI, United States (KTVC) 44-44N 085-34W 190M
Jun 17, 2019 - 02:53 AM EDT / 2019.06.17 0653 UTC
Wind: from the S (180 degrees) at 3 MPH (3 KT):0
Visibility: 10 mile(s):0
Sky conditions: clear
Temperature: 48.9 F (9.4 C)
Dew Point: 46.0 F (7.8 C)
Relative Humidity: 89%
Pressure (altimeter): 29.99 in. Hg (1015 hPa)
ob: KTVC 170653Z AUTO 18003KT 10SM CLR 09/08 A2999 RMK AO2 SLP156 T00940078
cycle: 7

Station Type Date Time Source
KTVC TAF 2019/06/17 06:42 UTC NOAA

TAF KTVC 170539Z 1706/1806 00000KT P6SM SCT120
FM171500 03005KT P6SM SCT150
FM180000 00000KT P6SM SCT120

Example: see airport list